Time;durP1;ratioP1;P1;durP2;ratioP2;P2;SDS_P1;SDS_P2;PMS_P1;PMS_P2;Temp;Humidity;BMP_temperature;BMP_pressure;BME280_temperature;BME280_humidity;BME280_pressure;Samples;Min_cycle;Max_cycle;Signal;HPM_P1;HPM_P2
2021/05/14 00:01:56;;;;;;;15.23;8.27;;;;;;;11.95;81.94;97000.91;5037489;28;20710;-69
2021/05/14 00:04:22;;;;;;;16.75;9.55;;;;;;;11.91;81.91;97007.09;5035980;28;20028;-69
2021/05/14 00:06:49;;;;;;;17.25;9.68;;;;;;;11.88;82.24;97004.19;5040301;28;20021;-69
2021/05/14 00:09:16;;;;;;;16.58;9.15;;;;;;;11.86;82.43;97000.97;5044921;28;20029;-70
2021/05/14 00:11:43;;;;;;;16.77;9.02;;;;;;;11.84;82.31;96998.59;5044289;28;20029;-70
2021/05/14 00:14:09;;;;;;;19.30;9.57;;;;;;;11.84;82.34;96998.59;5044905;28;20036;-70
2021/05/14 00:16:35;;;;;;;18.25;8.82;;;;;;;11.86;81.61;96992.75;5045380;28;20051;-70
2021/05/14 00:19:01;;;;;;;18.48;9.98;;;;;;;11.84;82.03;96990.34;5045222;28;20033;-70
2021/05/14 00:21:31;;;;;;;16.40;9.23;;;;;;;11.83;82.50;96996.16;5043457;28;20029;-69
2021/05/14 00:23:57;;;;;;;16.95;9.75;;;;;;;11.87;81.87;96992.41;5034782;28;20093;-70
2021/05/14 00:26:22;;;;;;;17.25;10.00;;;;;;;11.92;82.17;96999.63;5035954;28;20029;-70
2021/05/14 00:28:48;;;;;;;16.83;9.27;;;;;;;11.89;82.11;96990.13;5043247;28;20054;-70
2021/05/14 00:31:14;;;;;;;18.20;8.63;;;;;;;11.87;82.34;96986.09;5045223;28;20028;-70
2021/05/14 00:33:39;;;;;;;14.95;8.60;;;;;;;11.88;81.86;96991.28;5044414;28;20025;-70
2021/05/14 00:36:06;;;;;;;15.40;9.23;;;;;;;11.90;81.98;96993.66;5044239;28;20021;-69
2021/05/14 00:38:31;;;;;;;17.27;9.23;;;;;;;11.90;82.33;96996.41;5043088;28;20024;-70
2021/05/14 00:40:56;;;;;;;16.50;9.32;;;;;;;11.90;82.16;97002.72;5045153;28;20021;-70
2021/05/14 00:43:23;;;;;;;16.77;8.70;;;;;;;11.96;82.52;96999.75;5040470;28;21518;-69
2021/05/14 00:45:48;;;;;;;16.85;10.10;;;;;;;11.95;82.45;96998.94;5034552;28;20534;-70
2021/05/14 00:48:14;;;;;;;16.67;9.85;;;;;;;11.96;82.47;96991.53;5036817;28;20033;-69
2021/05/14 00:50:39;;;;;;;19.27;10.65;;;;;;;11.88;81.73;97004.19;5043980;28;20108;-70
2021/05/14 00:53:05;;;;;;;18.35;10.00;;;;;;;11.90;81.71;96997.22;5044859;28;20126;-70
2021/05/14 00:55:30;;;;;;;20.17;9.88;;;;;;;11.88;81.51;96996.78;5042653;28;20082;-69
2021/05/14 00:57:56;;;;;;;17.35;9.82;;;;;;;11.87;81.65;96992.41;5043435;28;20029;-70
2021/05/14 01:00:22;;;;;;;16.90;9.23;;;;;;;11.87;81.76;96997.09;5043572;28;20804;-70
2021/05/14 01:02:51;;;;;;;16.55;9.77;;;;;;;11.91;81.65;97003.50;5045236;28;20029;-69
2021/05/14 01:05:16;;;;;;;19.40;10.63;;;;;;;11.91;81.74;97001.59;5036756;28;20039;-70
2021/05/14 01:07:42;;;;;;;17.67;9.80;;;;;;;11.89;81.88;97009.38;5034154;28;20025;-70
2021/05/14 01:10:07;;;;;;;19.75;9.80;;;;;;;11.90;81.37;97007.41;5040168;28;20131;-69
2021/05/14 01:12:33;;;;;;;23.00;12.07;;;;;;;11.83;81.50;97013.47;5043980;28;20433;-69
2021/05/14 01:14:58;;;;;;;22.67;12.75;;;;;;;11.79;81.31;97004.31;5045558;28;20028;-70
2021/05/14 01:17:25;;;;;;;26.58;13.13;;;;;;;11.79;81.90;97007.03;5044216;28;20541;-69
2021/05/14 01:19:50;;;;;;;23.95;12.63;;;;;;;11.75;81.83;97006.94;5059829;28;20476;-70
2021/05/14 01:22:18;;;;;;;22.52;12.60;;;;;;;11.72;81.65;97001.31;5050283;28;20020;-69
2021/05/14 01:24:45;;;;;;;25.67;14.70;;;;;;;11.73;82.30;97000.16;5046097;28;20162;-69
2021/05/14 01:27:10;;;;;;;26.20;13.98;;;;;;;11.74;81.64;96999.03;5039457;28;20089;-70
2021/05/14 01:29:36;;;;;;;28.38;15.63;;;;;;;11.74;81.57;97001.78;5038565;28;20021;-69
2021/05/14 01:32:01;;;;;;;29.42;15.98;;;;;;;11.69;81.64;96994.56;5046263;28;20479;-70
2021/05/14 01:34:27;;;;;;;28.23;14.60;;;;;;;11.68;81.72;96995.69;5046662;28;20448;-70
2021/05/14 01:36:52;;;;;;;28.75;14.80;;;;;;;11.69;81.58;97000.06;5047555;28;20433;-69
2021/05/14 01:39:22;;;;;;;28.85;16.35;;;;;;;11.69;81.82;96985.50;5048427;28;20387;-70
2021/05/14 01:41:48;;;;;;;29.83;13.88;;;;;;;11.71;81.72;96989.53;5047430;28;20017;-70
2021/05/14 01:44:13;;;;;;;33.00;16.33;;;;;;;11.74;82.14;96994.34;5046734;28;20596;-70
2021/05/14 01:46:39;;;;;;;34.20;17.67;;;;;;;11.75;81.96;96990.47;5044464;28;20471;-69
2021/05/14 01:49:04;;;;;;;33.35;16.63;;;;;;;11.71;81.56;96997.78;5039268;28;20040;-70
2021/05/14 01:51:30;;;;;;;30.85;16.92;;;;;;;11.74;82.33;96999.03;5044336;28;20017;-70
2021/05/14 01:53:55;;;;;;;30.58;15.52;;;;;;;11.75;82.27;96998.69;5044502;28;20037;-70
2021/05/14 01:56:21;;;;;;;33.05;17.50;;;;;;;11.76;81.75;96996.75;5046802;28;20356;-70
2021/05/14 01:58:48;;;;;;;34.78;17.77;;;;;;;11.72;81.93;96990.31;5047869;28;20097;-69
2021/05/14 02:01:14;;;;;;;28.23;15.35;;;;;;;11.70;81.99;97004.41;5048398;28;20037;-69
2021/05/14 02:03:40;;;;;;;35.10;17.25;;;;;;;11.71;82.02;97002.44;5047882;28;20386;-70
2021/05/14 02:06:05;;;;;;;30.27;16.02;;;;;;;11.71;81.87;97010.69;5045880;28;20029;-70
2021/05/14 02:08:34;;;;;;;30.92;16.52;;;;;;;11.70;81.63;97009.06;5037237;28;20017;-69
2021/05/14 02:11:00;;;;;;;28.08;15.15;;;;;;;11.69;82.04;97010.22;5038960;28;20106;-70
2021/05/14 02:13:26;;;;;;;27.38;15.40;;;;;;;11.71;81.59;97011.50;5045808;28;20107;-70
2021/05/14 02:15:51;;;;;;;31.55;16.58;;;;;;;11.70;82.22;97006.34;5044611;28;20016;-69
2021/05/14 02:18:17;;;;;;;28.73;16.25;;;;;;;11.69;82.16;97012.97;5045964;28;20020;-69
2021/05/14 02:20:42;;;;;;;27.20;14.10;;;;;;;11.67;81.36;97010.56;5045878;28;20724;-70
2021/05/14 02:23:08;;;;;;;24.67;14.45;;;;;;;11.73;82.63;97016.66;5046998;28;20071;-70
2021/05/14 02:25:33;;;;;;;27.67;13.55;;;;;;;11.70;82.19;97009.06;5048002;28;20025;-70
2021/05/14 02:27:59;;;;;;;29.92;14.85;;;;;;;11.70;81.89;97009.91;5043763;28;20016;-69
2021/05/14 02:30:24;;;;;;;28.02;15.38;;;;;;;11.71;82.01;97022.50;5036962;28;20044;-69
2021/05/14 02:32:50;;;;;;;29.35;15.52;;;;;;;11.70;81.43;97012.66;5037606;28;20403;-69
2021/05/14 02:35:15;;;;;;;29.85;16.08;;;;;;;11.66;81.88;96999.91;5047247;28;20096;-69
2021/05/14 02:37:42;;;;;;;29.25;15.05;;;;;;;11.65;81.56;97017.53;5047453;28;20115;-70
2021/05/14 02:40:11;;;;;;;32.03;15.32;;;;;;;11.64;81.57;97000.25;5046537;28;20056;-69
2021/05/14 02:42:36;;;;;;;29.03;14.57;;;;;;;11.66;81.99;97008.97;5045775;28;20035;-70
2021/05/14 02:45:05;;;;;;;29.27;14.18;;;;;;;11.69;81.53;97012.97;5046077;28;20033;-70
2021/05/14 02:47:30;;;;;;;30.70;15.63;;;;;;;11.66;81.71;97010.91;5046865;28;21120;-69
2021/05/14 02:49:55;;;;;;;24.60;12.23;;;;;;;11.63;82.21;97001.41;5040688;28;20086;-70
2021/05/14 02:52:21;;;;;;;23.23;12.40;;;;;;;11.60;82.21;97005.66;5037382;28;20045;-69
2021/05/14 02:54:46;;;;;;;27.85;13.65;;;;;;;11.59;81.92;97017.78;5040759;28;20029;-69
2021/05/14 02:57:11;;;;;;;26.67;13.52;;;;;;;11.61;81.57;97017.41;5045207;28;20021;-69
2021/05/14 02:59:37;;;;;;;22.15;12.60;;;;;;;11.66;81.67;97016.38;5046986;28;20502;-70
2021/05/14 03:02:02;;;;;;;24.83;12.60;;;;;;;11.67;82.00;97018.81;5046103;28;20051;-69
2021/05/14 03:04:28;;;;;;;22.67;11.95;;;;;;;11.69;82.23;97023.94;5045761;28;20099;-70
2021/05/14 03:06:53;;;;;;;22.23;12.73;;;;;;;11.70;81.40;97020.06;5044143;28;20028;-70
2021/05/14 03:09:18;;;;;;;25.38;13.50;;;;;;;11.69;82.03;97018.47;5043856;28;20040;-69
2021/05/14 03:11:44;;;;;;;28.00;12.43;;;;;;;11.68;81.73;97027.84;5037951;28;20112;-70
2021/05/14 03:14:09;;;;;;;20.58;9.95;;;;;;;11.68;82.08;97017.66;5036685;28;20031;-70
2021/05/14 03:16:36;;;;;;;21.88;11.38;;;;;;;11.67;82.17;97026.22;5043558;28;20059;-70
2021/05/14 03:19:02;;;;;;;21.88;11.98;;;;;;;11.65;82.04;97031.25;5046393;28;20079;-69
2021/05/14 03:21:30;;;;;;;26.65;11.95;;;;;;;11.65;81.63;97034.81;5045110;28;20029;-69
2021/05/14 03:23:56;;;;;;;19.05;10.07;;;;;;;11.71;81.53;97029.91;5045442;28;20104;-69
2021/05/14 03:26:21;;;;;;;24.83;12.40;;;;;;;11.73;81.50;97025.69;5045853;28;20065;-70
2021/05/14 03:28:47;;;;;;;22.30;10.98;;;;;;;11.76;81.08;97038.75;5045005;28;20436;-70
2021/05/14 03:31:14;;;;;;;23.42;11.63;;;;;;;11.81;81.74;97034.97;5039394;28;20084;-70
2021/05/14 03:33:39;;;;;;;23.05;11.60;;;;;;;11.77;81.34;97042.28;5036077;28;20032;-70
2021/05/14 03:36:05;;;;;;;26.23;12.25;;;;;;;11.74;81.16;97038.28;5038503;28;20028;-69
2021/05/14 03:38:34;;;;;;;26.88;13.13;;;;;;;11.72;81.11;97045.25;5045887;28;20025;-70
2021/05/14 03:41:02;;;;;;;25.80;12.32;;;;;;;11.74;81.17;97048.47;5044502;28;20090;-70
2021/05/14 03:43:29;;;;;;;22.50;10.80;;;;;;;11.76;81.00;97048.94;5044094;28;20033;-70
2021/05/14 03:45:54;;;;;;;21.40;10.50;;;;;;;11.81;81.28;97051.47;5045175;28;20033;-70
2021/05/14 03:48:20;;;;;;;20.70;10.73;;;;;;;11.81;81.24;97048.72;5045092;28;20367;-70
2021/05/14 03:50:49;;;;;;;26.98;12.90;;;;;;;11.77;81.02;97054.09;5045581;28;20044;-70
2021/05/14 03:53:17;;;;;;;24.42;11.57;;;;;;;11.79;80.89;97047.47;5035203;28;20029;-70
2021/05/14 03:55:43;;;;;;;26.92;11.90;;;;;;;11.85;81.01;97054.31;5037601;28;20029;-70
2021/05/14 03:58:08;;;;;;;25.60;11.73;;;;;;;11.83;80.91;97056.59;5043302;28;20039;-70
2021/05/14 04:00:35;;;;;;;24.10;12.23;;;;;;;11.81;81.24;97054.22;5045491;28;20021;-69
2021/05/14 04:03:01;;;;;;;27.63;13.68;;;;;;;11.82;80.71;97052.28;5044313;28;20330;-70
2021/05/14 04:05:26;;;;;;;27.67;12.35;;;;;;;11.82;81.05;97053.06;5044367;28;20372;-70
2021/05/14 04:07:53;;;;;;;25.80;12.25;;;;;;;11.82;80.55;97053.06;5063939;28;20442;-71
2021/05/14 04:10:31;;;;;;;35.67;17.75;;;;;;;11.85;81.22;97054.31;5071280;28;20029;-70
2021/05/14 04:15:40;;;;;;;28.23;14.25;;;;;;;11.81;80.44;97056.16;5072719;28;20031;-69
2021/05/14 04:18:05;;;;;;;30.13;14.15;;;;;;;11.82;80.49;97061.31;5071504;28;20016;-70
2021/05/14 04:20:30;;;;;;;29.10;14.57;;;;;;;11.86;81.07;97055.94;5071121;28;20111;-70
2021/05/14 04:22:56;;;;;;;34.47;16.00;;;;;;;11.84;81.03;97059.03;5071938;28;20086;-70
2021/05/14 04:25:21;;;;;;;31.33;14.93;;;;;;;11.88;81.03;97056.38;5072251;28;20142;-70
2021/05/14 04:27:47;;;;;;;30.92;14.75;;;;;;;11.88;81.05;97064.63;5072097;28;20021;-70
2021/05/14 04:30:13;;;;;;;33.58;14.70;;;;;;;11.84;80.77;97067.28;5072221;28;20024;-70
2021/05/14 04:32:38;;;;;;;35.38;15.27;;;;;;;11.82;81.25;97060.53;5072242;28;20116;-69
2021/05/14 04:35:04;;;;;;;31.38;14.77;;;;;;;11.80;80.99;97062.81;5072167;28;20441;-70
2021/05/14 04:37:29;;;;;;;32.33;15.05;;;;;;;11.85;80.88;97073.56;5072006;28;20021;-70
2021/05/14 04:39:54;;;;;;;33.00;15.93;;;;;;;11.88;81.26;97065.44;5072241;28;20107;-70
2021/05/14 04:42:20;;;;;;;37.38;15.98;;;;;;;11.95;80.93;97077.84;5072344;28;20128;-70
2021/05/14 04:44:45;;;;;;;30.80;12.98;;;;;;;12.01;80.78;97076.50;5071957;28;20024;-70
2021/05/14 04:47:11;;;;;;;39.00;17.77;;;;;;;12.06;81.27;97071.59;5072298;28;20446;-70
2021/05/14 04:49:36;;;;;;;38.53;17.52;;;;;;;12.14;81.11;97082.84;5072120;28;20029;-70
2021/05/14 04:52:13;;;;;;;36.05;16.60;;;;;;;12.23;80.75;97080.75;5072250;28;20426;-70
2021/05/14 04:54:38;;;;;;;41.95;17.92;;;;;;;12.19;80.98;97088.91;5075841;28;20036;-70
2021/05/14 04:57:04;;;;;;;34.10;16.45;;;;;;;12.15;80.83;97084.44;5075975;28;20020;-70
2021/05/14 04:59:29;;;;;;;33.78;15.48;;;;;;;12.13;80.01;97082.00;5075973;28;20028;-70
2021/05/14 05:01:55;;;;;;;36.20;16.45;;;;;;;12.14;80.82;97083.63;5075690;28;20056;-70
2021/05/14 05:04:20;;;;;;;38.65;16.42;;;;;;;12.19;80.24;97085.38;5075771;28;20032;-70
2021/05/14 05:06:45;;;;;;;33.30;16.60;;;;;;;12.21;80.25;97091.31;5075772;28;20017;-71
2021/05/14 05:09:11;;;;;;;33.75;15.40;;;;;;;12.24;80.73;97090.63;5075613;28;20086;-70
2021/05/14 05:11:36;;;;;;;39.50;16.02;;;;;;;12.32;80.28;97094.44;5075870;28;20514;-70
2021/05/14 05:14:02;;;;;;;35.50;16.08;;;;;;;12.36;80.43;97098.09;5075692;28;20031;-71
2021/05/14 05:16:27;;;;;;;34.58;16.00;;;;;;;12.30;80.07;97094.75;5075518;28;20100;-70
2021/05/14 05:18:52;;;;;;;30.80;14.45;;;;;;;12.24;79.61;97092.56;5075530;28;20031;-70
2021/05/14 05:21:18;;;;;;;38.72;19.13;;;;;;;12.20;79.59;97097.97;5075743;28;20025;-70
2021/05/14 05:23:43;;;;;;;33.80;17.30;;;;;;;12.25;79.67;97086.72;5075323;28;20147;-70
2021/05/14 05:26:09;;;;;;;34.53;17.60;;;;;;;12.29;80.04;97103.34;5075437;28;20060;-70
2021/05/14 05:28:34;;;;;;;41.85;17.50;;;;;;;12.32;79.97;97099.94;5075270;28;20028;-70
2021/05/14 05:30:59;;;;;;;38.47;16.42;;;;;;;12.28;79.87;97099.00;5075398;28;20102;-70
2021/05/14 05:33:25;;;;;;;36.47;16.23;;;;;;;12.27;80.00;97100.16;5075243;28;20028;-70
2021/05/14 05:35:50;;;;;;;34.85;15.90;;;;;;;12.30;79.44;97104.97;5075128;28;20032;-70
2021/05/14 05:38:20;;;;;;;38.38;16.98;;;;;;;12.31;79.86;97115.59;5075176;28;20145;-70
2021/05/14 05:40:46;;;;;;;40.13;16.70;;;;;;;12.27;79.22;97109.19;5075026;28;20429;-70
2021/05/14 05:43:13;;;;;;;48.72;16.67;;;;;;;12.32;80.19;97117.22;5075011;28;20483;-70
2021/05/14 05:45:38;;;;;;;33.42;16.05;;;;;;;12.38;79.68;97126.06;5074898;28;20127;-70
2021/05/14 05:48:04;;;;;;;38.78;16.48;;;;;;;12.46;80.12;97127.09;5074906;28;20107;-70
2021/05/14 05:50:30;;;;;;;40.67;18.50;;;;;;;12.50;79.78;97128.03;5074993;28;20082;-70
2021/05/14 05:52:55;;;;;;;34.17;16.92;;;;;;;12.49;79.87;97127.22;5074736;28;20485;-70
2021/05/14 05:55:22;;;;;;;34.85;16.33;;;;;;;12.51;79.21;97141.41;5074901;28;20029;-71
2021/05/14 05:57:47;;;;;;;40.42;16.40;;;;;;;12.50;79.36;97128.81;5074853;28;20024;-70
2021/05/14 06:00:14;;;;;;;35.00;15.85;;;;;;;12.51;79.17;97135.13;5074878;28;20150;-70
2021/05/14 06:02:39;;;;;;;34.92;17.20;;;;;;;12.51;79.09;97141.41;5074495;28;20059;-70
2021/05/14 06:05:05;;;;;;;34.35;16.83;;;;;;;12.55;79.21;97143.50;5073509;28;20028;-70
2021/05/14 06:07:31;;;;;;;32.65;16.17;;;;;;;12.58;79.60;97151.88;5074955;28;20418;-70
2021/05/14 06:09:56;;;;;;;31.98;13.95;;;;;;;12.57;79.21;97155.78;5074602;28;20020;-70
2021/05/14 06:12:22;;;;;;;36.55;17.08;;;;;;;12.55;79.38;97157.25;5074668;28;20028;-70
2021/05/14 06:14:48;;;;;;;36.47;17.35;;;;;;;12.55;79.41;97154.50;5074303;28;20028;-70
2021/05/14 06:17:14;;;;;;;32.90;16.10;;;;;;;12.54;79.08;97155.63;5073139;28;20023;-71
2021/05/14 06:19:47;;;;;;;32.80;17.23;;;;;;;12.54;78.97;97164.69;5074420;28;20103;-71
2021/05/14 06:22:12;;;;;;;33.05;16.75;;;;;;;12.55;78.86;97166.31;5074597;28;20375;-71
2021/05/14 06:24:38;;;;;;;35.35;16.63;;;;;;;12.56;78.78;97167.91;5074236;28;20078;-71
2021/05/14 06:27:04;;;;;;;35.85;16.52;;;;;;;12.56;79.05;97169.84;5074347;28;20103;-71
2021/05/14 06:29:29;;;;;;;37.33;16.92;;;;;;;12.50;79.16;97172.81;5074215;28;20386;-71
2021/05/14 06:31:54;;;;;;;36.33;16.92;;;;;;;12.45;78.50;97174.97;5074162;28;20056;-71
2021/05/14 06:34:19;;;;;;;40.50;18.48;;;;;;;12.41;78.61;97179.56;5074285;28;20025;-71
2021/05/14 06:36:45;;;;;;;34.03;16.70;;;;;;;12.39;78.66;97171.66;5074266;28;20020;-70
2021/05/14 06:39:10;;;;;;;37.17;17.15;;;;;;;12.36;79.29;97178.63;5074741;28;20040;-70
2021/05/14 06:41:35;;;;;;;35.10;16.08;;;;;;;12.35;78.82;97187.22;5074115;28;20028;-70
2021/05/14 06:44:01;;;;;;;31.88;16.10;;;;;;;12.40;79.02;97187.00;5072666;28;20470;-70
2021/05/14 06:46:26;;;;;;;30.73;14.95;;;;;;;12.41;78.96;97182.31;5074103;28;20025;-71
2021/05/14 06:48:52;;;;;;;31.55;15.73;;;;;;;12.41;79.23;97187.81;5074171;28;20025;-70
2021/05/14 06:51:18;;;;;;;33.08;15.70;;;;;;;12.42;79.40;97187.47;5076308;28;20453;-70
2021/05/14 06:53:43;;;;;;;30.50;15.43;;;;;;;12.48;79.08;97190.81;5069589;28;20029;-70
2021/05/14 06:56:09;;;;;;;29.83;14.07;;;;;;;12.54;79.08;97199.63;5070074;28;20729;-70
2021/05/14 06:58:35;;;;;;;29.38;15.05;;;;;;;12.58;79.51;97189.56;5066678;28;20036;-70
2021/05/14 07:01:00;;;;;;;33.80;15.50;;;;;;;12.60;78.76;97196.34;5066423;28;20101;-70
2021/05/14 07:03:25;;;;;;;31.17;15.20;;;;;;;12.62;79.08;97202.31;5070364;28;20025;-71
2021/05/14 07:05:51;;;;;;;29.63;14.52;;;;;;;12.63;78.77;97203.09;5071592;28;20029;-70
2021/05/14 07:08:16;;;;;;;33.67;16.15;;;;;;;12.61;79.20;97202.63;5071544;28;20020;-71
2021/05/14 07:10:42;;;;;;;28.65;14.70;;;;;;;12.62;78.85;97196.81;5070677;28;20102;-71
2021/05/14 07:13:07;;;;;;;28.50;14.15;;;;;;;12.64;79.18;97210.22;5071717;28;20423;-70
2021/05/14 07:15:33;;;;;;;27.73;13.68;;;;;;;12.69;78.74;97212.75;5072263;28;20031;-71
2021/05/14 07:18:00;;;;;;;33.30;15.13;;;;;;;12.74;79.09;97214.47;5069167;28;20521;-71
2021/05/14 07:20:26;;;;;;;27.63;13.98;;;;;;;12.72;78.72;97217.56;5070820;28;20028;-70
2021/05/14 07:22:51;;;;;;;26.98;13.80;;;;;;;12.71;78.88;97215.97;5073289;28;20431;-70
2021/05/14 07:25:17;;;;;;;24.27;12.18;;;;;;;12.66;78.46;97219.72;5071135;28;20033;-72
2021/05/14 07:27:42;;;;;;;24.15;12.45;;;;;;;12.69;78.56;97222.94;5071154;28;20052;-71
2021/05/14 07:30:09;;;;;;;19.60;11.07;;;;;;;12.71;78.90;97226.97;5071003;28;20099;-71
2021/05/14 07:32:35;;;;;;;20.08;11.25;;;;;;;12.71;78.91;97221.47;5069569;28;20028;-70
2021/05/14 07:35:00;;;;;;;19.27;9.30;;;;;;;12.74;78.83;97223.53;5069876;28;20508;-71
2021/05/14 07:37:26;;;;;;;21.00;10.60;;;;;;;12.77;78.86;97235.78;5070583;28;20017;-71
2021/05/14 07:39:53;;;;;;;18.05;9.70;;;;;;;12.74;78.76;97241.97;5070678;28;20096;-70
2021/05/14 07:42:19;;;;;;;17.90;9.80;;;;;;;12.64;77.88;97234.97;5067535;28;20077;-71
2021/05/14 07:44:44;;;;;;;24.42;11.50;;;;;;;12.66;78.34;97238.97;5067572;28;20115;-69
2021/05/14 07:47:10;;;;;;;19.85;10.90;;;;;;;12.70;78.47;97243.78;5070382;28;20272;-69
2021/05/14 07:49:36;;;;;;;22.63;11.02;;;;;;;12.70;78.36;97235.53;5071404;28;20028;-70
2021/05/14 07:52:01;;;;;;;20.23;10.85;;;;;;;12.72;78.44;97245.06;5074184;28;20465;-70
2021/05/14 07:54:26;;;;;;;19.30;10.40;;;;;;;12.71;78.50;97243.47;5070765;28;20033;-71
2021/05/14 07:56:52;;;;;;;24.83;11.88;;;;;;;12.76;78.83;97240.50;5071210;28;20056;-72
2021/05/14 07:59:17;;;;;;;18.90;10.75;;;;;;;12.75;78.59;97244.41;5071154;28;20085;-71
2021/05/14 08:01:42;;;;;;;20.60;11.35;;;;;;;12.77;78.54;97253.13;5072081;28;20052;-70
2021/05/14 08:04:08;;;;;;;21.42;10.90;;;;;;;12.73;78.68;97256.88;5070958;28;20040;-71
2021/05/14 08:06:34;;;;;;;20.70;10.55;;;;;;;12.72;78.13;97258.00;5071103;28;20094;-69
2021/05/14 08:09:04;;;;;;;19.02;10.25;;;;;;;12.72;78.32;97253.31;5071135;28;20433;-69
2021/05/14 08:11:29;;;;;;;19.50;10.52;;;;;;;12.73;78.42;97251.38;5070533;28;20595;-69
2021/05/14 08:13:54;;;;;;;21.25;11.57;;;;;;;12.71;78.33;97257.22;5070608;28;20020;-70
2021/05/14 08:16:20;;;;;;;19.40;10.93;;;;;;;12.74;78.88;97259.28;5074221;28;20020;-69
2021/05/14 08:18:45;;;;;;;18.13;10.98;;;;;;;12.76;78.39;97262.50;5082863;28;20496;-70
2021/05/14 08:21:10;;;;;;;22.73;10.52;;;;;;;12.75;78.89;97262.84;5073314;28;20158;-69
2021/05/14 08:23:36;;;;;;;18.83;11.23;;;;;;;12.73;78.52;97265.13;5071610;28;20431;-70
2021/05/14 08:26:02;;;;;;;15.63;9.25;;;;;;;12.72;78.23;97264.34;5072204;28;20034;-70
2021/05/14 08:28:28;;;;;;;16.50;10.15;;;;;;;12.71;78.48;97264.66;5063821;28;20033;-70
2021/05/14 08:30:54;;;;;;;17.35;9.35;;;;;;;12.73;78.25;97265.94;5069011;28;20040;-70
2021/05/14 08:33:19;;;;;;;15.00;8.95;;;;;;;12.75;78.48;97266.41;5069172;28;20032;-70
2021/05/14 08:35:45;;;;;;;15.18;8.60;;;;;;;12.78;78.47;97270.41;5068810;28;20126;-70
2021/05/14 08:38:10;;;;;;;14.77;8.68;;;;;;;12.83;78.34;97272.16;5068221;28;20036;-70
2021/05/14 08:40:40;;;;;;;13.63;8.25;;;;;;;12.84;78.91;97277.31;5064290;28;20481;-70
2021/05/14 08:43:06;;;;;;;18.40;9.18;;;;;;;12.86;78.58;97276.94;5089579;28;20082;-69
2021/05/14 08:45:33;;;;;;;14.30;9.60;;;;;;;12.93;78.36;97286.28;5076309;28;20102;-69
2021/05/14 08:47:59;;;;;;;16.55;9.32;;;;;;;12.96;78.28;97287.53;5070358;28;20024;-69
2021/05/14 08:50:27;;;;;;;14.63;8.55;;;;;;;12.90;78.52;97289.72;5069724;28;20388;-69
2021/05/14 08:52:53;;;;;;;15.75;9.00;;;;;;;12.87;78.24;97284.06;5071343;28;20032;-69
2021/05/14 08:55:23;;;;;;;18.08;9.32;;;;;;;12.86;78.23;97288.78;5071470;28;20021;-68
2021/05/14 08:57:49;;;;;;;20.30;10.07;;;;;;;12.87;78.34;97287.63;5071328;28;20013;-69
2021/05/14 09:00:15;;;;;;;17.60;9.55;;;;;;;12.83;78.16;97291.41;5068799;28;20385;-69
2021/05/14 09:02:41;;;;;;;19.08;10.13;;;;;;;12.77;78.00;97293.56;5071245;28;20040;-69
2021/05/14 09:05:32;;;;;;;19.98;10.63;;;;;;;12.80;78.25;97296.47;5071378;28;20473;-69
2021/05/14 09:07:58;;;;;;;16.70;9.60;;;;;;;12.85;78.77;97300.94;5071276;28;20078;-69
2021/05/14 09:10:29;;;;;;;17.95;10.40;;;;;;;12.84;78.50;97301.28;5071705;28;20116;-69
2021/05/14 09:12:56;;;;;;;25.75;15.35;;;;;;;12.84;78.06;97304.03;5071649;28;20794;-69
2021/05/14 09:15:29;;;;;;;31.58;16.55;;;;;;;12.88;78.28;97307.69;5071756;28;20050;-69
2021/05/14 09:18:13;;;;;;;22.92;11.60;;;;;;;12.91;78.59;97312.50;5071553;28;20440;-69
2021/05/14 09:20:45;;;;;;;20.67;12.63;;;;;;;12.94;78.64;97309.09;5070301;28;20035;-69
2021/05/14 09:23:16;;;;;;;18.48;10.52;;;;;;;12.95;78.81;97321.69;5071836;28;20103;-69
2021/05/14 09:26:05;;;;;;;15.13;9.10;;;;;;;12.97;78.39;97322.16;5071665;28;20031;-69
2021/05/14 09:28:37;;;;;;;12.85;8.00;;;;;;;12.97;78.60;97324.91;5071670;28;20052;-70
2021/05/14 09:31:27;;;;;;;16.55;9.05;;;;;;;12.93;78.49;97330.31;5071613;28;20032;-70
2021/05/14 09:33:54;;;;;;;19.42;9.13;;;;;;;12.88;78.28;97333.28;5063508;28;20498;-76
2021/05/14 09:36:28;;;;;;;22.75;9.55;;;;;;;12.90;78.28;97333.75;5070283;28;20033;-75
2021/05/14 09:39:00;;;;;;;20.08;10.35;;;;;;;12.93;78.19;97337.75;5072024;28;20051;-76
2021/05/14 09:41:32;;;;;;;18.30;9.57;;;;;;;12.97;78.51;97335.94;5075202;28;20031;-73
2021/05/14 09:43:58;;;;;;;18.50;10.25;;;;;;;12.95;78.03;97336.28;5075196;28;20037;-76
2021/05/14 09:46:32;;;;;;;18.55;9.93;;;;;;;12.94;78.42;97345.69;5075556;28;20120;-75
2021/05/14 09:48:59;;;;;;;19.35;9.98;;;;;;;12.95;78.31;97354.72;5073792;28;20094;-75
2021/05/14 09:51:25;;;;;;;19.05;9.73;;;;;;;12.92;78.02;97356.22;5074773;28;20032;-75
2021/05/14 09:53:51;;;;;;;19.83;9.50;;;;;;;12.92;78.19;97352.66;5073540;28;20466;-75
2021/05/14 09:56:29;;;;;;;20.75;10.23;;;;;;;12.92;78.17;97350.72;5074989;28;20060;-75
2021/05/14 09:58:57;;;;;;;21.83;10.75;;;;;;;12.85;77.64;97347.72;5074994;28;20494;-75
2021/05/14 10:01:24;;;;;;;19.85;10.38;;;;;;;12.79;77.88;97355.38;5074636;28;20094;-75
2021/05/14 10:03:51;;;;;;;20.13;10.68;;;;;;;12.80;78.24;97351.47;5074628;28;20024;-75
2021/05/14 10:06:17;;;;;;;34.33;15.93;;;;;;;12.87;78.14;97350.09;5073642;28;20440;-75
2021/05/14 10:08:48;;;;;;;24.88;13.02;;;;;;;12.98;78.64;97347.75;5074777;28;20154;-75
2021/05/14 10:11:15;;;;;;;24.30;13.77;;;;;;;13.04;78.29;97355.44;5074888;28;20373;-75
2021/05/14 10:13:41;;;;;;;29.25;16.02;;;;;;;13.09;78.66;97360.75;5074804;28;20013;-75
2021/05/14 10:16:06;;;;;;;25.80;13.27;;;;;;;13.07;78.21;97359.47;5074578;28;20505;-77
2021/05/14 10:18:35;;;;;;;29.27;15.23;;;;;;;13.04;77.56;97357.41;5074434;28;20477;-77
2021/05/14 10:21:08;;;;;;;31.60;15.48;;;;;;;12.96;77.37;97364.59;5074534;28;20048;-76
2021/05/14 10:23:34;;;;;;;32.60;16.23;;;;;;;12.90;77.61;97366.75;5074785;28;20055;-76
2021/05/14 10:26:11;;;;;;;35.10;17.80;;;;;;;12.86;77.54;97371.31;5074481;28;20474;-76
2021/05/14 10:28:48;;;;;;;32.03;17.67;;;;;;;12.86;77.38;97373.25;5074876;28;20029;-76
2021/05/14 10:31:18;;;;;;;35.97;18.85;;;;;;;12.92;78.12;97369.16;5074663;28;20038;-75
2021/05/14 10:34:13;;;;;;;37.00;18.13;;;;;;;12.93;77.69;97373.53;5073188;28;20025;-79
2021/05/14 10:36:38;;;;;;;36.55;17.95;;;;;;;12.91;77.71;97381.31;5073067;28;20136;-76
2021/05/14 10:39:05;;;;;;;35.75;18.80;;;;;;;12.88;77.48;97379.22;5074094;28;20056;-76
2021/05/14 10:41:31;;;;;;;33.80;17.42;;;;;;;12.84;77.68;97381.06;5073984;28;20028;-75
2021/05/14 10:44:00;;;;;;;36.75;18.15;;;;;;;12.80;77.41;97390.00;5074090;28;20073;-75
2021/05/14 10:46:28;;;;;;;33.35;18.33;;;;;;;12.86;77.55;97376.00;5073307;28;20043;-75
2021/05/14 10:49:05;;;;;;;38.50;18.38;;;;;;;12.97;77.82;97374.47;5072918;28;20017;-75
2021/05/14 10:51:46;;;;;;;33.65;18.23;;;;;;;13.11;78.27;97387.91;5072023;28;20028;-75
2021/05/14 10:54:39;;;;;;;32.55;17.85;;;;;;;13.17;77.68;97385.78;5071381;28;20053;-75
2021/05/14 10:57:05;;;;;;;30.08;16.35;;;;;;;13.20;77.26;97388.63;5072696;28;20417;-75
2021/05/14 10:59:35;;;;;;;27.73;15.52;;;;;;;13.27;77.43;97382.56;5073027;28;20445;-75
2021/05/14 11:02:22;;;;;;;23.90;13.90;;;;;;;13.33;77.27;97391.44;5073580;28;20135;-75
2021/05/14 11:04:48;;;;;;;25.75;14.30;;;;;;;13.39;77.10;97387.31;5073680;28;20024;-75
2021/05/14 11:07:31;;;;;;;21.33;12.48;;;;;;;13.47;77.42;97391.13;5073775;28;20021;-75
2021/05/14 11:10:15;;;;;;;21.58;12.90;;;;;;;13.55;76.85;97387.47;5073549;28;20032;-75
2021/05/14 11:12:45;;;;;;;21.95;11.70;;;;;;;13.57;76.43;97385.19;5073628;28;20146;-75
2021/05/14 11:15:20;;;;;;;21.67;13.45;;;;;;;13.62;76.37;97392.41;5073389;28;20066;-75
2021/05/14 11:18:07;;;;;;;26.77;12.45;;;;;;;13.58;76.04;97392.31;5073648;28;20051;-75
2021/05/14 11:20:47;;;;;;;20.13;11.57;;;;;;;13.61;76.19;97399.06;5073375;28;20025;-75
2021/05/14 11:23:34;;;;;;;21.38;11.93;;;;;;;13.67;75.91;97392.19;5073213;28;20013;-75